الصفحة الرئيسية
METAR-TAF:

METAR-TAF

مطار :

Pago Pago, جزر الولايات المتحدة البعيدة الصغيرة

دائرة عرض: 14-20S, خط طول: 170-43W, ارتفاع: 3 متر

مراقبة الطقس الحالي

تاريخ ووقت الإصدار 31 دقيقة قبل الساعة 23:50UTC
ريح 11 عقدة من الشرق/الجنوب الشرقي
درجة الحرارة 27°درجة مئوية
الرطوبة 84%
ضغط 1012 hPa
الرؤية: 19.3 كم
غيوم متفرقة على ارتفاع 1600 قدم, مزنة ركامية.
غيوم متفرقة على ارتفاع 4000 قدم
ملبد بالغيوم على ارتفاع 11000 قدم

METAR: NSTU 172350Z 11011KT 12SM SCT016CB SCT040 OVC110 27/24 A2989 RMK CB SE-S SLP124 8/37/ T02670237 10298 20245 56014

زمن: 13:21 (00:21 UTC)

توقعات

تاريخ ووقت الإصدار 46 دقيقة قبل الساعة 23:35UTC
التوقعات صالحة من18 الساعة 00 UTC إلى 18 الساعة 24 UTC
ريح 10 عقدة من الشرق
الرؤية: 10 كم
غيوم متفرقة على ارتفاع 1500 قدم
غيوم مفككة على ارتفاع 4000 قدم
غيوم مفككة على ارتفاع 10000 قدم
زخات في الجوار

TAF: NSTU 172335Z 1800/1824 08010KT P6SM VCSH SCT015 BKN040 BKN100

أرصاد الطقس والتوقعات من أكثر من 4000 مطار (تقارير الطقس للمطار METAR والتنبؤ بالطقس بالمطارTAF).

المحطات المتاحة هي النقط الصفراء والحمراء على الخريطة.

حرك المؤشر فوق النقطة لمعرفة اسم المحطة.

ثم انقر لمعرفة أرصاد وتوقعات الطقس.

لتغيير الخارطة: اضغط على الأزرار الخضراء مع رمز الصليب الأسود للتكبير. على الزر الأخضر مع شرطة للتصغير، أو على الأسهم الخضراء للخرائط المجاورة.


METAR-TAF: